JAL3581 RJFF-RJOK
Flight info
| Callsign | JAL3581 |
|---|---|
| Flight time | 0h 33m |
| Altitude | 23000 |
| Route | MYE BOTAN KABIL |
| Aircraft | B78X/H-SDE1E2E3FGHIJ2J3J4J5M1RWXY/LB1D1 |
Departure
| Time | 2026-04-30 11:43 |
|---|---|
| Airport | Fukuoka Airport (RJFF) |
Arrival
| Time | 2026-04-30 12:16 |
|---|---|
| Airport | Kochi Ryoma Airport (RJOK) |
| Time | Latitude | Longitude | Altitude | Speed | Heading |
|---|---|---|---|---|---|
| 2026-04-30 11:20 | 33.59844 | 130.44649 | 32 ft | 0 kts | 61° |
| 2026-04-30 11:25 | 33.59835 | 130.44631 | 31 ft | 5 kts | 69° |
| 2026-04-30 11:25 | 33.59828 | 130.44601 | 31 ft | 5 kts | 87° |
| 2026-04-30 11:25 | 33.59831 | 130.44549 | 28 ft | 2 kts | 95° |
| 2026-04-30 11:31 | 33.59830 | 130.44550 | 29 ft | 1 kts | 98° |
| 2026-04-30 11:31 | 33.59826 | 130.44556 | 29 ft | 1 kts | 119° |
| 2026-04-30 11:32 | 33.59817 | 130.44563 | 28 ft | 2 kts | 143° |
| 2026-04-30 11:32 | 33.59800 | 130.44572 | 32 ft | 3 kts | 159° |
| 2026-04-30 11:32 | 33.59791 | 130.44568 | 32 ft | 0 kts | 199° |
| 2026-04-30 11:33 | 33.59787 | 130.44556 | 32 ft | 1 kts | 242° |
| 2026-04-30 11:33 | 33.59773 | 130.44515 | 32 ft | 8 kts | 246° |
| 2026-04-30 11:33 | 33.59748 | 130.44462 | 33 ft | 3 kts | 239° |
| 2026-04-30 11:33 | 33.59749 | 130.44464 | 33 ft | 3 kts | 238° |
| 2026-04-30 11:34 | 33.59736 | 130.44439 | 33 ft | 6 kts | 238° |
| 2026-04-30 11:34 | 33.59709 | 130.44386 | 32 ft | 8 kts | 236° |
| 2026-04-30 11:34 | 33.59673 | 130.44339 | 32 ft | 4 kts | 205° |
| 2026-04-30 11:34 | 33.59662 | 130.44341 | 32 ft | 0 kts | 172° |
| 2026-04-30 11:35 | 33.59658 | 130.44343 | 32 ft | 1 kts | 167° |
| 2026-04-30 11:35 | 33.59657 | 130.44346 | 32 ft | 0 kts | 151° |
| 2026-04-30 11:42 | 33.59620 | 130.44370 | 32 ft | 27 kts | 151° |
| 2026-04-30 11:43 | 33.59213 | 130.44646 | 31 ft | 107 kts | 150° |
| 2026-04-30 11:43 | 33.58336 | 130.45239 | 57 ft | 175 kts | 150° |
| 2026-04-30 11:43 | 33.57250 | 130.45885 | 738 ft | 171 kts | 153° |
| 2026-04-30 11:43 | 33.56182 | 130.46591 | 1254 ft | 178 kts | 149° |
| 2026-04-30 11:44 | 33.55081 | 130.47347 | 1872 ft | 184 kts | 151° |
| 2026-04-30 11:44 | 33.53923 | 130.48073 | 2606 ft | 197 kts | 154° |
| 2026-04-30 11:44 | 33.52646 | 130.48854 | 3456 ft | 214 kts | 154° |
| 2026-04-30 11:44 | 33.51248 | 130.49715 | 4167 ft | 235 kts | 155° |
| 2026-04-30 11:45 | 33.49740 | 130.50647 | 4940 ft | 253 kts | 154° |
| 2026-04-30 11:45 | 33.48139 | 130.51639 | 5887 ft | 264 kts | 155° |
| 2026-04-30 11:45 | 33.46490 | 130.52660 | 6915 ft | 268 kts | 155° |
| 2026-04-30 11:45 | 33.44827 | 130.53687 | 7934 ft | 271 kts | 156° |
| 2026-04-30 11:46 | 33.43138 | 130.54729 | 8999 ft | 274 kts | 157° |
| 2026-04-30 11:46 | 33.41433 | 130.55781 | 10028 ft | 277 kts | 158° |
| 2026-04-30 11:46 | 33.39677 | 130.56859 | 10726 ft | 292 kts | 158° |
| 2026-04-30 11:46 | 33.37797 | 130.58013 | 11236 ft | 313 kts | 158° |
| 2026-04-30 11:47 | 33.35794 | 130.59247 | 11740 ft | 334 kts | 158° |
| 2026-04-30 11:47 | 33.33699 | 130.60542 | 12499 ft | 344 kts | 158° |
| 2026-04-30 11:47 | 33.31551 | 130.61867 | 13385 ft | 350 kts | 158° |
| 2026-04-30 11:47 | 33.29362 | 130.63214 | 14242 ft | 355 kts | 159° |
| 2026-04-30 11:48 | 33.27173 | 130.64558 | 15047 ft | 361 kts | 159° |
| 2026-04-30 11:48 | 33.24938 | 130.66005 | 15837 ft | 368 kts | 157° |
| 2026-04-30 11:48 | 33.22757 | 130.67677 | 16650 ft | 381 kts | 147° |
| 2026-04-30 11:48 | 33.20890 | 130.70021 | 17483 ft | 398 kts | 133° |
| 2026-04-30 11:49 | 33.19519 | 130.72957 | 18268 ft | 415 kts | 117° |
| 2026-04-30 11:49 | 33.18808 | 130.76363 | 18952 ft | 432 kts | 101° |
| 2026-04-30 11:49 | 33.18893 | 130.80001 | 19616 ft | 447 kts | 83° |
| 2026-04-30 11:49 | 33.19791 | 130.83612 | 20244 ft | 458 kts | 72° |
| 2026-04-30 11:50 | 33.20894 | 130.87212 | 20831 ft | 465 kts | 72° |
| 2026-04-30 11:50 | 33.22143 | 130.90807 | 21413 ft | 473 kts | 70° |
| 2026-04-30 11:50 | 33.23345 | 130.94406 | 22289 ft | 471 kts | 72° |
| 2026-04-30 11:50 | 33.24533 | 130.98102 | 23147 ft | 473 kts | 72° |
| 2026-04-30 11:51 | 33.25745 | 131.01778 | 23792 ft | 478 kts | 71° |
| 2026-04-30 11:51 | 33.26980 | 131.05436 | 24385 ft | 483 kts | 71° |
| 2026-04-30 11:51 | 33.28236 | 131.09196 | 24856 ft | 489 kts | 71° |
| 2026-04-30 11:51 | 33.29485 | 131.13009 | 25015 ft | 501 kts | 72° |
| 2026-04-30 11:52 | 33.30782 | 131.16958 | 25022 ft | 516 kts | 71° |
| 2026-04-30 11:52 | 33.32104 | 131.20945 | 25025 ft | 516 kts | 71° |
| 2026-04-30 11:52 | 33.33418 | 131.24947 | 25025 ft | 516 kts | 71° |
| 2026-04-30 11:52 | 33.34713 | 131.28933 | 25010 ft | 517 kts | 71° |
| 2026-04-30 11:53 | 33.36017 | 131.32935 | 24905 ft | 515 kts | 71° |
| 2026-04-30 11:53 | 33.37322 | 131.36922 | 24884 ft | 515 kts | 71° |
| 2026-04-30 11:53 | 33.38624 | 131.40914 | 24899 ft | 516 kts | 71° |
| 2026-04-30 11:53 | 33.39923 | 131.44914 | 24894 ft | 514 kts | 72° |
| 2026-04-30 11:54 | 33.41218 | 131.48906 | 24896 ft | 515 kts | 72° |
| 2026-04-30 11:54 | 33.42516 | 131.52901 | 24892 ft | 513 kts | 72° |
| 2026-04-30 11:54 | 33.43793 | 131.56838 | 24886 ft | 515 kts | 72° |
| 2026-04-30 11:54 | 33.45100 | 131.60877 | 24887 ft | 514 kts | 72° |
| 2026-04-30 11:55 | 33.46385 | 131.64861 | 24898 ft | 526 kts | 72° |
| 2026-04-30 11:55 | 33.47726 | 131.69022 | 24904 ft | 543 kts | 72° |
| 2026-04-30 11:55 | 33.49121 | 131.73305 | 24898 ft | 560 kts | 70° |
| 2026-04-30 11:55 | 33.50703 | 131.77622 | 24899 ft | 568 kts | 69° |
| 2026-04-30 11:56 | 33.52247 | 131.81983 | 24891 ft | 567 kts | 70° |
| 2026-04-30 11:56 | 33.53773 | 131.86335 | 24895 ft | 567 kts | 69° |
| 2026-04-30 11:56 | 33.55330 | 131.90683 | 24900 ft | 567 kts | 69° |
| 2026-04-30 11:56 | 33.56898 | 131.95028 | 24905 ft | 567 kts | 69° |
| 2026-04-30 11:57 | 33.58450 | 131.99387 | 24898 ft | 567 kts | 70° |
| 2026-04-30 11:57 | 33.59963 | 132.03678 | 24896 ft | 565 kts | 69° |
| 2026-04-30 11:57 | 33.61520 | 132.08074 | 24899 ft | 566 kts | 69° |
| 2026-04-30 11:57 | 33.63072 | 132.12430 | 24903 ft | 566 kts | 69° |
| 2026-04-30 11:58 | 33.64593 | 132.16718 | 24906 ft | 566 kts | 69° |
| 2026-04-30 11:58 | 33.66130 | 132.21078 | 24906 ft | 566 kts | 69° |
| 2026-04-30 11:58 | 33.67662 | 132.25426 | 24907 ft | 566 kts | 69° |
| 2026-04-30 11:58 | 33.69200 | 132.29781 | 24905 ft | 566 kts | 69° |
| 2026-04-30 11:59 | 33.70734 | 132.34133 | 24904 ft | 566 kts | 69° |
| 2026-04-30 11:59 | 33.72261 | 132.38478 | 24900 ft | 565 kts | 69° |
| 2026-04-30 11:59 | 33.73791 | 132.42838 | 24895 ft | 565 kts | 69° |
| 2026-04-30 11:59 | 33.75317 | 132.47188 | 24898 ft | 565 kts | 69° |
| 2026-04-30 12:00 | 33.76842 | 132.51542 | 24912 ft | 565 kts | 69° |
| 2026-04-30 12:00 | 33.78263 | 132.55907 | 24868 ft | 551 kts | 76° |
| 2026-04-30 12:00 | 33.79077 | 132.60310 | 24803 ft | 528 kts | 87° |
| 2026-04-30 12:00 | 33.79280 | 132.64612 | 24771 ft | 503 kts | 98° |
| 2026-04-30 12:01 | 33.78946 | 132.68689 | 24741 ft | 479 kts | 108° |
| 2026-04-30 12:01 | 33.78170 | 132.72426 | 24716 ft | 455 kts | 117° |
| 2026-04-30 12:01 | 33.77002 | 132.75902 | 24578 ft | 434 kts | 126° |
| 2026-04-30 12:01 | 33.75549 | 132.78956 | 24290 ft | 418 kts | 134° |
| 2026-04-30 12:02 | 33.73828 | 132.81690 | 23985 ft | 404 kts | 141° |
| 2026-04-30 12:02 | 33.71985 | 132.84229 | 23479 ft | 404 kts | 141° |
| 2026-04-30 12:02 | 33.70104 | 132.86753 | 22822 ft | 406 kts | 141° |
| 2026-04-30 12:02 | 33.68211 | 132.89292 | 22181 ft | 410 kts | 141° |
| 2026-04-30 12:03 | 33.66315 | 132.91866 | 21537 ft | 413 kts | 140° |
| 2026-04-30 12:03 | 33.62524 | 132.97042 | 20317 ft | 415 kts | 136° |
| 2026-04-30 12:03 | 33.60960 | 132.99999 | 19788 ft | 425 kts | 124° |
| 2026-04-30 12:04 | 33.59660 | 133.03186 | 19238 ft | 423 kts | 124° |
| 2026-04-30 12:04 | 33.58369 | 133.06356 | 18737 ft | 423 kts | 122° |
| 2026-04-30 12:04 | 33.57165 | 133.09576 | 18255 ft | 422 kts | 120° |
| 2026-04-30 12:04 | 33.55981 | 133.12788 | 17668 ft | 419 kts | 121° |
| 2026-04-30 12:05 | 33.54781 | 133.15904 | 17154 ft | 415 kts | 121° |
| 2026-04-30 12:05 | 33.53573 | 133.18998 | 16641 ft | 411 kts | 121° |
| 2026-04-30 12:05 | 33.52382 | 133.22094 | 16139 ft | 407 kts | 120° |
| 2026-04-30 12:05 | 33.51214 | 133.25164 | 15647 ft | 402 kts | 120° |
| 2026-04-30 12:06 | 33.50053 | 133.28194 | 15154 ft | 398 kts | 120° |
| 2026-04-30 12:06 | 33.48894 | 133.31190 | 14657 ft | 394 kts | 120° |
| 2026-04-30 12:06 | 33.47745 | 133.34166 | 14192 ft | 390 kts | 119° |
| 2026-04-30 12:06 | 33.46616 | 133.37106 | 13711 ft | 386 kts | 119° |
| 2026-04-30 12:07 | 33.45527 | 133.40022 | 13170 ft | 384 kts | 114° |
| 2026-04-30 12:07 | 33.44781 | 133.43094 | 12648 ft | 382 kts | 110° |
| 2026-04-30 12:07 | 33.44069 | 133.46073 | 12060 ft | 362 kts | 110° |
| 2026-04-30 12:07 | 33.43616 | 133.47951 | 11696 ft | 348 kts | 110° |
| 2026-04-30 12:08 | 33.42970 | 133.50644 | 11232 ft | 327 kts | 110° |
| 2026-04-30 12:08 | 33.42362 | 133.53186 | 10725 ft | 310 kts | 110° |
| 2026-04-30 12:08 | 33.41774 | 133.55633 | 10134 ft | 299 kts | 110° |
| 2026-04-30 12:08 | 33.41211 | 133.57976 | 9562 ft | 288 kts | 110° |
| 2026-04-30 12:09 | 33.40658 | 133.60269 | 8678 ft | 287 kts | 110° |
| 2026-04-30 12:09 | 33.40102 | 133.62573 | 7683 ft | 288 kts | 109° |
| 2026-04-30 12:09 | 33.39550 | 133.64873 | 6735 ft | 286 kts | 109° |
| 2026-04-30 12:09 | 33.39005 | 133.67139 | 5792 ft | 281 kts | 108° |
| 2026-04-30 12:10 | 33.38471 | 133.69350 | 4824 ft | 273 kts | 108° |
| 2026-04-30 12:10 | 33.37952 | 133.71498 | 3839 ft | 264 kts | 107° |
| 2026-04-30 12:10 | 33.37460 | 133.73543 | 3205 ft | 252 kts | 106° |
| 2026-04-30 12:10 | 33.36995 | 133.75480 | 3019 ft | 229 kts | 105° |
| 2026-04-30 12:11 | 33.36829 | 133.77276 | 3002 ft | 209 kts | 89° |
| 2026-04-30 12:11 | 33.37121 | 133.78917 | 2991 ft | 194 kts | 74° |
| 2026-04-30 12:11 | 33.37728 | 133.80243 | 3001 ft | 175 kts | 61° |
| 2026-04-30 12:11 | 33.38577 | 133.81296 | 3006 ft | 179 kts | 49° |
| 2026-04-30 12:12 | 33.39510 | 133.82237 | 3010 ft | 171 kts | 49° |
| 2026-04-30 12:12 | 33.40407 | 133.83142 | 3005 ft | 172 kts | 47° |
| 2026-04-30 12:12 | 33.41558 | 133.83597 | 2937 ft | 187 kts | 14° |
| 2026-04-30 12:12 | 33.42868 | 133.83193 | 2464 ft | 201 kts | 335° |
| 2026-04-30 12:13 | 33.43851 | 133.82036 | 2053 ft | 200 kts | 314° |
| 2026-04-30 12:13 | 33.44705 | 133.80762 | 1780 ft | 192 kts | 313° |
| 2026-04-30 12:13 | 33.45562 | 133.79538 | 1462 ft | 185 kts | 315° |
| 2026-04-30 12:13 | 33.46388 | 133.78433 | 1418 ft | 178 kts | 316° |
| 2026-04-30 12:14 | 33.47192 | 133.77328 | 1413 ft | 171 kts | 314° |
| 2026-04-30 12:14 | 33.47979 | 133.76232 | 1418 ft | 174 kts | 313° |
| 2026-04-30 12:14 | 33.48759 | 133.75135 | 1404 ft | 174 kts | 313° |
| 2026-04-30 12:14 | 33.49568 | 133.74005 | 1341 ft | 177 kts | 313° |
| 2026-04-30 12:15 | 33.50346 | 133.72917 | 1109 ft | 169 kts | 313° |
| 2026-04-30 12:15 | 33.51102 | 133.71856 | 888 ft | 161 kts | 314° |
| 2026-04-30 12:15 | 33.51820 | 133.70856 | 672 ft | 152 kts | 312° |
| 2026-04-30 12:15 | 33.52507 | 133.69873 | 466 ft | 150 kts | 311° |
| 2026-04-30 12:16 | 33.53208 | 133.68917 | 273 ft | 156 kts | 314° |
| 2026-04-30 12:16 | 33.53877 | 133.67960 | 62 ft | 153 kts | 311° |
| 2026-04-30 12:16 | 33.54477 | 133.67123 | 43 ft | 98 kts | 310° |
| 2026-04-30 12:16 | 33.54766 | 133.66720 | 43 ft | 42 kts | 311° |
| 2026-04-30 12:17 | 33.55048 | 133.66367 | 46 ft | 11 kts | 353° |
| 2026-04-30 12:17 | 33.55077 | 133.66380 | 48 ft | 2 kts | 38° |
| 2026-04-30 12:17 | 33.55101 | 133.66407 | 49 ft | 7 kts | 41° |
| 2026-04-30 12:18 | 33.55134 | 133.66449 | 46 ft | 5 kts | 60° |
| 2026-04-30 12:18 | 33.55135 | 133.66491 | 45 ft | 6 kts | 103° |
| 2026-04-30 12:18 | 33.55094 | 133.66563 | 47 ft | 18 kts | 130° |
| 2026-04-30 12:18 | 33.55007 | 133.66686 | 49 ft | 20 kts | 130° |
| 2026-04-30 12:19 | 33.54913 | 133.66818 | 47 ft | 21 kts | 130° |
| 2026-04-30 12:19 | 33.54836 | 133.66923 | 46 ft | 14 kts | 131° |
| 2026-04-30 12:19 | 33.54787 | 133.66991 | 45 ft | 12 kts | 130° |
| 2026-04-30 12:19 | 33.54756 | 133.67035 | 45 ft | 6 kts | 130° |
| 2026-04-30 12:20 | 33.54724 | 133.67081 | 44 ft | 8 kts | 130° |
| 2026-04-30 12:20 | 33.54702 | 133.67111 | 44 ft | 0 kts | 129° |
| 2026-04-30 12:20 | 33.54701 | 133.67114 | 44 ft | 1 kts | 129° |
| 2026-04-30 12:21 | 33.54684 | 133.67139 | 44 ft | 6 kts | 129° |
| 2026-04-30 12:21 | 33.54656 | 133.67180 | 43 ft | 7 kts | 129° |
| 2026-04-30 12:21 | 33.54644 | 133.67195 | 42 ft | 1 kts | 134° |
| 2026-04-30 12:21 | 33.54638 | 133.67202 | 43 ft | 0 kts | 134° |
| 2026-04-30 12:22 | 33.54628 | 133.67213 | 43 ft | 4 kts | 135° |
| 2026-04-30 12:22 | 33.54605 | 133.67243 | 43 ft | 6 kts | 134° |
| 2026-04-30 12:22 | 33.54582 | 133.67274 | 42 ft | 1 kts | 118° |
| 2026-04-30 12:22 | 33.54573 | 133.67290 | 42 ft | 3 kts | 128° |
| 2026-04-30 12:23 | 33.54571 | 133.67300 | 42 ft | 1 kts | 101° |
| 2026-04-30 12:23 | 33.54574 | 133.67304 | 42 ft | 0 kts | 79° |
| 2026-04-30 12:23 | 33.54581 | 133.67313 | 40 ft | 1 kts | 45° |
| 2026-04-30 12:23 | 33.54603 | 133.67333 | 42 ft | 5 kts | 39° |
| 2026-04-30 12:24 | 33.54631 | 133.67360 | 42 ft | 5 kts | 40° |
| 2026-04-30 12:24 | 33.54660 | 133.67391 | 42 ft | 4 kts | 39° |
| 2026-04-30 12:24 | 33.54666 | 133.67396 | 41 ft | 1 kts | 39° |
| 2026-04-30 12:24 | 33.54667 | 133.67397 | 41 ft | 0 kts | 39° |